Terminal Aerodrome Forecast
Issued by NWS Pocatello, ID

Home | Current Version | Previous Version | Text Only | Print | Product List | Glossary On
Versions: 1 2 3 4 5 6 7 8 9 10 11 12 13 14 15 16 17 18
000
FTUS45 KPIH 231700
TAFIDA
TAF
KIDA 231723Z 2318/2418 23006KT P6SM FEW015 SCT100
     FM232200 23015KT P6SM VCSH SCT015 BKN090 BKN110
     FM240400 21015KT P6SM VCSH SCT008 BKN025 OVC100
     FM240800 22015KT P6SM SCT008 BKN015
     FM241700 21006KT P6SM SCT015 SCT050=

USA.gov is the U.S. government's official web portal to all federal, state and local government web resources and services.